Accueil
METAR-TAF:

METAR-TAF

Aéroports :

Volgograd, Russie

Aéroport de Volgograd

latitude: 48-47N, longitude: 044-22E, altitude: 145 m

Observation

Le bulletin a été fait il y a 22 minutes, à 01:30 UTC
Vent 14 kt de est/nord-est
Température 21°C
Humidité 49%
Pression 1020 hPa
Visibilité 10 km ou plus
pas de nuages en-dessous de 1500 mètres et pas de cumulonimbus.

METAR: URWW 190130Z 06007MPS CAVOK 21/10 Q1020 R06/010070 NOSIG

Heure: 04:52 (01:52 UTC)

Prévision

Le bulletin a été fait il y a 2 heures et 55 minutes, à 22:57 UTC
Prévision valable du 19 à 00 UTC au 19 à 09 UTC
Vent 12 kt de nord-est avec des rafales jusqu'à 21 kt
Visibilité 10 km ou plus
Nuages épars à une hauteur de 5000 ft, Cumulonimbus.
Nuages fragmentés à une hauteur de 10000 ft
Temporairement
du 19 à 00 UTC au 19 à 09 UTC
Vent 6 kt de est/nord-est avec des rafales jusqu'à 16 kt

TAF: URWW 182257Z 1900/1909 04006G11MPS 9999 SCT050CB BKN100 TEMPO 1900/1909 07003G08MPS

Observations et prévisions météorologiques de plus de 4000 aéroports (messages METAR et TAF).

Les stations disponibles sont représentées par des disques jaunes et rouges sur la carte.

Passer la souris dessus pour voir le nom de la station.

Cliquer dessus pour voir les observations et prévisions météorologiques.

Pour changer de carte: cliquez sur les boutons verts avec une croix noire pour zoomer, sur le bouton vert avec un tiret pour effectuer un zoom arrière, ou sur les flèches vertes pour les cartes adjacentes.


METAR-TAF: